Flight Track Log - Related Links

Times and Time Zones

All times are in EDT time to prevent confusion due to time zone crossing. See the UAL33 flight status page for this flight to view local times or setup timezone preferences in your user account.

Time Position Orientation Groundspeed Altitude Reporting Facility
EDT Latitude Longitude Course Direction KTS MPH feet Rate Location/Type
Tue 09:57:59 PM 41.9930 -87.9360 320° Northwest 160 184 1,300  Level FlightAware ADS-B
Tue 09:58:22 PM 42.0070 -87.9510 321° Northwest 174 200 2,500 2,717 Climbing FlightAware ADS-B
Tue 09:58:52 PM 42.0270 -87.9730 321° Northwest 210 242 3,700 2,300 Climbing FlightAware ADS-B
Tue 09:59:22 PM 42.0540 -87.9990 324° Northwest 249 287 4,800 1,345 Climbing FlightAware ADS-B
Tue 09:59:50 PM 42.0800 -88.0250 323° Northwest 256 295 5,000 370 Climbing FlightAware ADS-B
Tue 10:00:43 PM 42.1140 -88.0580 324° Northwest 256 295 5,300 2,268 Climbing FlightAware ADS-B
Tue 10:01:12 PM 42.1570 -88.1060 320° Northwest 269 310 8,100 5,415 Climbing FlightAware ADS-B
Tue 10:01:24 PM 42.1630 -88.1250 293° West 274 315 9,000 4,333 Climbing FlightAware ADS-B
Tue 10:01:30 PM 42.1630 -88.1350 270° West 276 318 9,400 3,892 Climbing FlightAware ADS-B
Tue 10:02:01 PM 42.1490 -88.1850 249° West 291 335 11,400 3,444 Climbing FlightAware ADS-B
Tue 10:02:24 PM 42.1340 -88.2230 242° Southwest 298 343 12,500 1,619 Climbing FlightAware ADS-B
Tue 10:03:04 PM 42.1080 -88.2890 242° Southwest 305 351 13,100 1,143 Climbing FlightAware ADS-B
Tue 10:03:48 PM 42.0640 -88.3570 229° Southwest 364 419 14,100 1,976 Climbing FlightAware ADS-B
Tue 10:04:29 PM 42.0080 -88.4270 223° Southwest 402 463 15,900 2,927 Climbing FlightAware ADS-B
Tue 10:05:10 PM 41.9570 -88.5020 228° Southwest 408 470 18,100 3,176 Climbing FlightAware ADS-B
Tue 10:05:54 PM 41.9250 -88.6040 247° West 416 479 20,400 3,214 Climbing FlightAware ADS-B
Tue 10:06:34 PM 41.8970 -88.7000 249° West 419 482 22,600 3,071 Climbing FlightAware ADS-B
Tue 10:07:18 PM 41.8650 -88.8100 249° West 429 494 24,700 2,571 Climbing FlightAware ADS-B
Tue 10:07:58 PM 41.8370 -88.9070 249° West 441 507 26,200 2,286 Climbing FlightAware ADS-B
Tue 10:08:42 PM 41.8040 -89.0230 249° West 452 520 27,900 2,500 Climbing FlightAware ADS-B
Tue 10:09:22 PM 41.7730 -89.1290 249° West 453 521 29,700 2,286 Climbing FlightAware ADS-B
Tue 10:10:06 PM 41.7380 -89.2490 249° West 462 532 31,100 1,929 Climbing FlightAware ADS-B
Tue 10:10:46 PM 41.7090 -89.3510 249° West 464 534 32,400 1,357 Climbing FlightAware ADS-B
Tue 10:11:30 PM 41.6720 -89.4660 247° West 467 537 33,000 429 Climbing FlightAware ADS-B
Tue 10:12:10 PM 41.6210 -89.5620 235° Southwest 474 545 33,000  Level FlightAware ADS-B
Tue 10:12:54 PM 41.5590 -89.6610 230° Southwest 469 540 33,000  Level FlightAware ADS-B
Tue 10:13:34 PM 41.5050 -89.7480 230° Southwest 468 539 33,000 71 Level FlightAware ADS-B
Tue 10:14:18 PM 41.4430 -89.8460 230° Southwest 468 539 33,100 1,116 Climbing FlightAware ADS-B
Tue 10:15:00 PM 41.3860 -89.9360 230° Southwest 462 532 34,600 2,077 Climbing FlightAware ADS-B
Tue 10:15:36 PM 41.3360 -90.0150 230° Southwest 459 528 35,800 1,816 Climbing FlightAware ADS-B
Tue 10:16:16 PM 41.2800 -90.1030 230° Southwest 461 531 36,900 1,725 Climbing FlightAware ADS-B
Tue 10:16:56 PM 41.2260 -90.1870 229° Southwest 453 521 38,100 1,816 Climbing FlightAware ADS-B
Tue 10:17:32 PM 41.1760 -90.2650 230° Southwest 446 513 39,200 1,425 Climbing FlightAware ADS-B
Tue 10:18:16 PM 41.1180 -90.3550 229° Southwest 446 513 40,000 585 Climbing FlightAware ADS-B
Tue 10:18:54 PM 41.0680 -90.4340 230° Southwest 450 518 40,000  Level FlightAware ADS-B
Tue 10:19:32 PM 41.0140 -90.5170 229° Southwest 448 516 40,000  Level FlightAware ADS-B
Tue 10:20:16 PM 40.9570 -90.6060 230° Southwest 450 518 40,000  Level FlightAware ADS-B
Tue 10:20:56 PM 40.9020 -90.6900 229° Southwest 456 525 40,000  Level FlightAware ADS-B
Tue 10:21:36 PM 40.8470 -90.7750 229° Southwest 459 528 40,000  Level FlightAware ADS-B
Tue 10:22:20 PM 40.7860 -90.8670 229° Southwest 460 529 40,000  Level FlightAware ADS-B
Tue 10:23:00 PM 40.7290 -90.9550 229° Southwest 459 528 40,000  Level FlightAware ADS-B
Tue 10:23:45 PM 40.6660 -91.0510 229° Southwest 458 527 40,000  Level FlightAware ADS-B
Tue 10:24:21 PM 40.6170 -91.1240 229° Southwest 456 525 40,000  Level FlightAware ADS-B
Tue 10:25:00 PM 40.5680 -91.1990 229° Southwest 456 525 40,000  Level FlightAware ADS-B
Tue 10:25:42 PM 40.5040 -91.2950 229° Southwest 455 524 40,000  Level FlightAware ADS-B
Tue 10:26:22 PM 40.4500 -91.3770 229° Southwest 455 524 40,000  Level FlightAware ADS-B
Tue 10:27:07 PM 40.3870 -91.4710 229° Southwest 456 525 40,000  Level FlightAware ADS-B
Tue 10:27:50 PM 40.3350 -91.5480 228° Southwest 457 526 40,000  Level FlightAware ADS-B
Tue 10:28:29 PM 40.2740 -91.6410 229° Southwest 458 527 40,000  Level FlightAware ADS-B
Tue 10:29:19 PM 40.2100 -91.7350 228° Southwest 459 528 40,000  Level FlightAware ADS-B
Tue 10:30:03 PM 40.1430 -91.8350 229° Southwest 458 527 40,000  Level FlightAware ADS-B
Tue 10:30:56 PM 40.0660 -91.9480 228° Southwest 457 526 40,000  Level FlightAware ADS-B
Tue 10:31:33 PM 40.0160 -92.0230 229° Southwest 458 527 40,000  Level FlightAware ADS-B
Tue 10:32:10 PM 39.9630 -92.1000 228° Southwest 458 527 40,000  Level FlightAware ADS-B
Tue 10:33:00 PM 39.8980 -92.1960 229° Southwest 458 527 40,000  Level FlightAware ADS-B
Tue 10:33:36 PM 39.8420 -92.2780 228° Southwest 456 525 40,000  Level FlightAware ADS-B
Tue 10:34:32 PM 39.7680 -92.3850 228° Southwest 456 525 40,000  Level FlightAware ADS-B
Tue 10:35:11 PM 39.7080 -92.4720 228° Southwest 458 527 40,000  Level FlightAware ADS-B
Tue 10:35:52 PM 39.6500 -92.5560 228° Southwest 459 528 40,000  Level FlightAware ADS-B
Tue 10:36:35 PM 39.5900 -92.6430 228° Southwest 458 527 40,000  Level FlightAware ADS-B
Tue 10:37:16 PM 39.5410 -92.7140 228° Southwest 458 527 40,000  Level FlightAware ADS-B
Tue 10:37:59 PM 39.4700 -92.8160 228° Southwest 459 528 40,000  Level FlightAware ADS-B
Tue 10:38:33 PM 39.4230 -92.8830 228° Southwest 460 529 40,000  Level FlightAware ADS-B
Tue 10:39:15 PM 39.3620 -92.9710 228° Southwest 458 527 40,000  Level FlightAware ADS-B
Tue 10:39:55 PM 39.3060 -93.0500 228° Southwest 459 528 40,000  Level FlightAware ADS-B
Tue 10:40:39 PM 39.2430 -93.1400 228° Southwest 458 527 40,000  Level FlightAware ADS-B
Tue 10:41:19 PM 39.1850 -93.2220 228° Southwest 455 524 40,000  Level FlightAware ADS-B
Tue 10:42:03 PM 39.1230 -93.3100 228° Southwest 451 519 40,000  Level FlightAware ADS-B
Tue 10:42:43 PM 39.0680 -93.3870 227° Southwest 451 519 40,000  Level FlightAware ADS-B
Tue 10:43:23 PM 39.0110 -93.4680 228° Southwest 452 520 40,000  Level FlightAware ADS-B
Tue 10:44:01 PM 38.9570 -93.5430 227° Southwest 452 520 40,000  Level FlightAware ADS-B
Tue 10:44:45 PM 38.8950 -93.6300 228° Southwest 452 520 40,000  Level FlightAware ADS-B
Tue 10:45:21 PM 38.8450 -93.7000 227° Southwest 454 522 40,000  Level FlightAware ADS-B
Tue 10:46:01 PM 38.7870 -93.7810 227° Southwest 452 520 40,000  Level FlightAware ADS-B
Tue 10:46:45 PM 38.7270 -93.8640 227° Southwest 452 520 40,000  Level FlightAware ADS-B
Tue 10:47:25 PM 38.6680 -93.9460 227° Southwest 452 520 40,000  Level FlightAware ADS-B
Tue 10:48:09 PM 38.6070 -94.0300 227° Southwest 452 520 40,000  Level FlightAware ADS-B
Tue 10:48:49 PM 38.5510 -94.1070 227° Southwest 455 524 40,000  Level FlightAware ADS-B
Tue 10:49:33 PM 38.4860 -94.1960 227° Southwest 455 524 40,000  Level FlightAware ADS-B
Tue 10:50:13 PM 38.4310 -94.2720 227° Southwest 456 525 40,000  Level FlightAware ADS-B
Tue 10:50:49 PM 38.3770 -94.3460 227° Southwest 457 526 40,000  Level FlightAware ADS-B
Tue 10:51:29 PM 38.3190 -94.4240 227° Southwest 456 525 40,000  Level FlightAware ADS-B
Tue 10:52:13 PM 38.2480 -94.5020 221° Southwest 472 543 40,000  Level FlightAware ADS-B
Tue 10:52:49 PM 38.1760 -94.5450 205° Southwest 492 566 40,000  Level FlightAware ADS-B
Tue 10:53:29 PM 38.0880 -94.5750 195° South 495 570 40,000  Level FlightAware ADS-B
Tue 10:54:25 PM 37.9540 -94.5760 180° South 527 606 40,000  Level FlightAware ADS-B
Tue 10:55:05 PM 37.8620 -94.5420 164° South 528 608 40,000  Level FlightAware ADS-B
Tue 10:55:49 PM 37.7580 -94.5030 163° South 525 604 40,000  Level FlightAware ADS-B
Tue 10:56:29 PM 37.6660 -94.4680 163° South 524 603 40,000  Level FlightAware ADS-B
Tue 10:57:15 PM 37.5590 -94.4290 164° South 523 602 40,000  Level FlightAware ADS-B
Tue 10:57:47 PM 37.4860 -94.4020 164° South 520 598 40,000  Level FlightAware ADS-B
Tue 10:58:43 PM 37.3570 -94.4060 181° South 485 558 40,000  Level FlightAware ADS-B
Tue 10:59:23 PM 37.2800 -94.4610 210° Southwest 481 554 40,000  Level FlightAware ADS-B
Tue 11:00:02 PM 37.2040 -94.5160 210° Southwest 479 551 40,000  Level FlightAware ADS-B
Tue 11:00:40 PM 37.1310 -94.5680 210° Southwest 482 555 40,000  Level FlightAware ADS-B
Tue 11:01:24 PM 37.0410 -94.6210 205° Southwest 486 559 40,000  Level FlightAware ADS-B
Tue 11:02:08 PM 36.9520 -94.6720 205° Southwest 487 560 40,000  Level FlightAware ADS-B
Tue 11:02:48 PM 36.8680 -94.7150 202° Southwest 489 563 40,000  Level FlightAware ADS-B
Tue 11:03:30 PM 36.7770 -94.7490 197° South 490 564 40,000  Level FlightAware ADS-B
Tue 11:04:14 PM 36.6790 -94.7830 196° South 492 566 40,000  Level FlightAware ADS-B
Tue 11:04:46 PM 36.6100 -94.8070 196° South 493 567 40,000  Level FlightAware ADS-B
Tue 11:05:30 PM 36.5120 -94.8410 196° South 497 572 40,000  Level FlightAware ADS-B
Tue 11:06:11 PM 36.4250 -94.8720 196° South 501 577 40,000  Level FlightAware ADS-B
Tue 11:06:46 PM 36.3430 -94.9000 195° South 504 580 40,000  Level FlightAware ADS-B
Tue 11:07:30 PM 36.2430 -94.9350 196° South 508 585 40,000  Level FlightAware ADS-B
Tue 11:08:10 PM 36.1520 -94.9640 194° South 505 581 40,000  Level FlightAware ADS-B
Tue 11:08:48 PM 36.0660 -94.9840 191° South 502 578 40,000  Level FlightAware ADS-B
Tue 11:09:34 PM 35.9600 -95.0070 190° South 508 585 40,000  Level FlightAware ADS-B
Tue 11:10:18 PM 35.8580 -95.0320 191° South 507 583 40,000  Level FlightAware ADS-B
Tue 11:10:56 PM 35.7760 -95.0750 203° Southwest 501 577 40,000  Level FlightAware ADS-B
Tue 11:11:30 PM 35.7090 -95.1200 209° Southwest 501 577 40,000  Level FlightAware ADS-B
Tue 11:12:16 PM 35.6150 -95.1810 208° Southwest 502 578 40,000  Level FlightAware ADS-B
Tue 11:12:51 PM 35.5540 -95.2210 208° Southwest 502 578 40,000  Level FlightAware ADS-B
Tue 11:13:30 PM 35.4610 -95.2820 208° Southwest 503 579 40,000  Level FlightAware ADS-B
Tue 11:14:14 PM 35.3710 -95.3410 208° Southwest 504 580 40,000  Level FlightAware ADS-B
Tue 11:14:57 PM 35.2820 -95.3990 208° Southwest 506 582 40,000  Level FlightAware ADS-B
Tue 11:15:40 PM 35.1940 -95.4560 208° Southwest 507 583 40,000  Level FlightAware ADS-B
Tue 11:16:37 PM 35.0880 -95.5230 207° Southwest 507 583 40,000  Level FlightAware ADS-B
Tue 11:17:12 PM 35.0020 -95.5800 209° Southwest 510 587 40,000  Level FlightAware ADS-B
Tue 11:17:58 PM 34.9080 -95.6410 208° Southwest 510 587 40,000  Level FlightAware ADS-B
Tue 11:18:32 PM 34.8370 -95.6860 207° Southwest 512 589 40,000  Level FlightAware ADS-B
Tue 11:19:17 PM 34.7420 -95.7480 208° Southwest 513 590 40,000  Level FlightAware ADS-B
Tue 11:19:57 PM 34.6560 -95.8020 207° Southwest 510 587 40,000  Level FlightAware ADS-B
Tue 11:20:32 PM 34.5820 -95.8490 208° Southwest 509 586 40,000  Level FlightAware ADS-B
Tue 11:21:17 PM 34.4920 -95.9070 208° Southwest 510 587 40,000  Level FlightAware ADS-B
Tue 11:21:57 PM 34.4070 -95.9610 208° Southwest 511 588 40,000  Level FlightAware ADS-B
Tue 11:22:41 PM 34.3140 -96.0200 208° Southwest 513 590 40,000  Level FlightAware ADS-B
Tue 11:22:48 PM 34.2968 -96.0307 207° Southwest 511 588 40,000  Level FlightAware ADS-B
Tue 11:23:19 PM 34.2324 -96.0713 208° Southwest 513 590 40,000  Level FlightAware ADS-B
Tue 11:24:06 PM 34.1340 -96.1335 208° Southwest 514 592 40,000  Level FlightAware ADS-B
Tue 11:24:45 PM 34.0510 -96.1860 208° Southwest 514 592 40,000  Level FlightAware ADS-B
Tue 11:25:25 PM 33.9670 -96.2380 207° Southwest 513 590 40,000  Level FlightAware ADS-B
Tue 11:26:09 PM 33.8750 -96.2960 208° Southwest 512 589 40,000  Level FlightAware ADS-B
Tue 11:26:48 PM 33.7930 -96.3480 208° Southwest 510 587 40,000  Level FlightAware ADS-B
Tue 11:27:33 PM 33.6990 -96.4060 207° Southwest 508 585 40,000  Level FlightAware ADS-B
Tue 11:28:14 PM 33.6130 -96.4590 207° Southwest 507 583 40,000  Level FlightAware ADS-B
Tue 11:28:56 PM 33.5260 -96.5130 207° Southwest 508 585 40,000  Level FlightAware ADS-B
Tue 11:29:25 PM 33.4644 -96.5514 207° Southwest 506 582 40,000  Level FlightAware ADS-B
Tue 11:29:55 PM 33.4017 -96.5902 207° Southwest 505 581 40,000  Level FlightAware ADS-B
Tue 11:30:57 PM 33.2680 -96.6450 199° South 508 585 40,000  Level FlightAware ADS-B
Tue 11:31:07 PM 33.2412 -96.6452 180° South 507 583 40,000  Level FlightAware ADS-B
Tue 11:31:11 PM 33.2341 -96.6447 177° South 511 588 40,000  Level FlightAware ADS-B
Tue 11:31:41 PM 33.1627 -96.6391 176° South 511 588 40,000  Level FlightAware ADS-B
Tue 11:32:11 PM 33.0916 -96.6337 176° South 509 586 40,000  Level FlightAware ADS-B
Tue 11:33:04 PM 32.9664 -96.6240 176° South 507 583 40,000  Level FlightAware ADS-B
Tue 11:33:35 PM 32.8955 -96.6186 176° South 508 585 40,000  Level FlightAware ADS-B
Tue 11:34:10 PM 32.8120 -96.6121 176° South 508 585 40,000  Level FlightAware ADS-B
Tue 11:34:47 PM 32.7251 -96.6055 176° South 509 586 40,000 -947 Level FlightAware ADS-B
Tue 11:35:45 PM 32.5900 -96.5950 176° South 517 595 38,500 -1,690 Descending FlightAware ADS-B
Tue 11:35:58 PM 32.5562 -96.5926 177° South 519 597 38,000 -2,182 Descending FlightAware ADS-B
Tue 11:36:29 PM 32.4812 -96.5869 176° South 525 604 36,900 -2,000 Descending FlightAware ADS-B
Tue 11:37:04 PM 32.3963 -96.5804 176° South 529 609 35,800 -1,823 Descending FlightAware ADS-B
Tue 11:37:48 PM 32.2900 -96.5720 176° South 529 609 34,500 -1,655 Descending FlightAware ADS-B
Tue 11:38:02 PM 32.2539 -96.5695 177° South 529 609 34,200 -1,091 Descending FlightAware ADS-B
Tue 11:38:32 PM 32.1830 -96.5640 176° South 509 586 33,700 -1,059 Descending FlightAware ADS-B
Tue 11:39:10 PM 32.0960 -96.5580 177° South 500 575 33,000 -1,038 Descending FlightAware ADS-B
Tue 11:39:24 PM 32.0613 -96.5552 176° South 500 575 32,800 -933 Descending FlightAware ADS-B
Tue 11:39:55 PM 31.9918 -96.5499 176° South 502 578 32,300 -984 Descending FlightAware ADS-B
Tue 11:40:25 PM 31.9199 -96.5446 176° South 500 575 31,800 -984 Descending FlightAware ADS-B
Tue 11:40:56 PM 31.8495 -96.5394 176° South 497 572 31,300 -1,161 Descending FlightAware ADS-B
Tue 11:41:27 PM 31.7790 -96.5340 176° South 494 568 30,600 -1,672 Descending FlightAware ADS-B
Tue 11:41:57 PM 31.7097 -96.5289 176° South 498 573 29,600 -1,600 Descending FlightAware ADS-B
Tue 11:42:27 PM 31.6414 -96.5238 176° South 492 566 29,000 -655 Descending FlightAware ADS-B
Tue 11:42:52 PM 31.5848 -96.5195 176° South 489 563 29,000  Level FlightAware ADS-B
Tue 11:43:11 PM 31.5424 -96.5137 173° South 490 564 29,000  Level FlightAware ADS-B
Tue 11:43:27 PM 31.5058 -96.5058 170° South 492 566 29,000  Level FlightAware ADS-B
Tue 11:43:37 PM 31.4844 -96.5000 167° South 493 567 29,000  Level FlightAware ADS-B
Tue 11:43:55 PM 31.4447 -96.4863 164° South 492 566 29,000  Level FlightAware ADS-B
Tue 11:44:25 PM 31.3790 -96.4617 162° South 493 567 29,000 -500 Level FlightAware ADS-B
Tue 11:44:55 PM 31.3135 -96.4372 162° South 491 565 28,500 -1,258 Descending FlightAware ADS-B
Tue 11:45:27 PM 31.2443 -96.4113 162° South 487 560 27,700 -1,667 Descending FlightAware ADS-B
Tue 11:45:49 PM 31.1982 -96.3942 162° South 482 555 27,000 -2,057 Descending FlightAware ADS-B
Tue 11:46:02 PM 31.1714 -96.3827 160° South 481 554 26,500 -2,276 Descending FlightAware ADS-B
Tue 11:46:18 PM 31.1395 -96.3659 156° South 476 548 25,900 -2,000 Descending FlightAware ADS-B
Tue 11:46:35 PM 31.1058 -96.3443 151° Southeast 467 537 25,400 -2,170 Descending FlightAware ADS-B
Tue 11:47:05 PM 31.0515 -96.3040 148° Southeast 458 527 24,200 -2,164 Descending FlightAware ADS-B
Tue 11:47:36 PM 30.9976 -96.2639 147° Southeast 452 520 23,200 -2,066 Descending FlightAware ADS-B
Tue 11:48:06 PM 30.9451 -96.2249 147° Southeast 444 511 22,100 -2,100 Descending FlightAware ADS-B
Tue 11:48:36 PM 30.8931 -96.1867 148° Southeast 436 502 21,100 -1,967 Descending FlightAware ADS-B
Tue 11:49:07 PM 30.8403 -96.1477 148° Southeast 430 495 20,100 -1,935 Descending FlightAware ADS-B
Tue 11:49:38 PM 30.7898 -96.1100 147° Southeast 423 487 19,100 -2,000 Descending FlightAware ADS-B
Tue 11:50:07 PM 30.7412 -96.0740 148° Southeast 417 480 18,100 -2,034 Descending FlightAware ADS-B
Tue 11:50:37 PM 30.6924 -96.0381 148° Southeast 409 471 17,100 -2,000 Descending FlightAware ADS-B
Tue 11:51:07 PM 30.6446 -96.0030 148° Southeast 404 465 16,100 -1,900 Descending FlightAware ADS-B
Tue 11:51:37 PM 30.5975 -95.9683 148° Southeast 399 459 15,200 -1,967 Descending FlightAware ADS-B
Tue 11:52:08 PM 30.5497 -95.9332 148° Southeast 394 453 14,100 -2,129 Descending FlightAware ADS-B
Tue 11:52:39 PM 30.5032 -95.8989 148° Southeast 388 447 13,000 -1,962 Descending FlightAware ADS-B
Tue 11:53:00 PM 30.4709 -95.8747 147° Southeast 381 438 12,400 -1,250 Descending FlightAware ADS-B
Tue 11:53:27 PM 30.4339 -95.8419 143° Southeast 368 423 12,000 -421 Descending FlightAware ADS-B
Tue 11:53:57 PM 30.3958 -95.8023 138° Southeast 368 423 12,000  Level FlightAware ADS-B
Tue 11:54:27 PM 30.3574 -95.7623 138° Southeast 370 426 12,000 -492 Level FlightAware ADS-B
Tue 11:54:58 PM 30.3191 -95.7222 138° Southeast 365 420 11,500 -952 Descending FlightAware ADS-B
Tue 11:55:30 PM 30.2803 -95.6816 138° Southeast 336 387 11,000 -677 Descending FlightAware ADS-B
Tue 11:56:00 PM 30.2471 -95.6470 138° Southeast 309 356 10,800 -383 Descending FlightAware ADS-B
Tue 11:56:17 PM 30.2294 -95.6285 138° Southeast 297 342 10,700 -273 Descending FlightAware ADS-B
Tue 11:56:22 PM 30.2246 -95.6230 135° Southeast 294 338 10,700  Level FlightAware ADS-B
Tue 11:56:26 PM 30.2205 -95.6183 135° Southeast 292 336 10,700  Level FlightAware ADS-B
Tue 11:56:30 PM 30.2183 -95.6123 113° Southeast 292 336 10,700 -750 Level FlightAware ADS-B
Tue 11:56:34 PM 30.2156 -95.6070 121° Southeast 292 336 10,600 -667 Descending FlightAware ADS-B
Tue 11:56:39 PM 30.2137 -95.5994 106° East 293 337 10,600 -833 Level FlightAware ADS-B
Tue 11:57:10 PM 30.2038 -95.5527 104° East 300 345 10,100 -1,200 Descending FlightAware ADS-B
Tue 11:57:24 PM 30.1993 -95.5297 103° East 303 349 9,700 -1,655 Descending FlightAware ADS-B
Tue 11:57:39 PM 30.1947 -95.5058 103° East 306 352 9,300 -1,548 Descending FlightAware ADS-B
Tue 11:57:55 PM 30.1902 -95.4812 102° East 307 353 8,900 -1,355 Descending FlightAware ADS-B
Tue 11:58:10 PM 30.1859 -95.4568 102° East 306 352 8,600 -1,200 Descending FlightAware ADS-B
Tue 11:58:25 PM 30.1816 -95.4326 102° East 303 349 8,300 -1,200 Descending FlightAware ADS-B
Tue 11:58:40 PM 30.1775 -95.4082 101° East 300 345 8,000 -1,200 Descending FlightAware ADS-B
Tue 11:58:55 PM 30.1736 -95.3850 101° East 300 345 7,700 -1,000 Descending FlightAware ADS-B
Tue 11:59:10 PM 30.1698 -95.3617 101° East 296 341 7,500 -600 Descending FlightAware ADS-B
Tue 11:59:25 PM 30.1662 -95.3385 100° East 293 337 7,400 -400 Descending FlightAware ADS-B
Tue 11:59:40 PM 30.1626 -95.3152 100° East 291 335 7,300 -581 Descending FlightAware ADS-B
Tue 11:59:56 PM 30.1590 -95.2923 100° East 290 334 7,100 -774 Descending FlightAware ADS-B
Wed 12:00:11 AM 30.1554 -95.2693 100° East 289 333 6,900 -800 Descending FlightAware ADS-B
Wed 12:00:26 AM 30.1518 -95.2459 100° East 291 335 6,700 -968 Descending FlightAware ADS-B
Wed 12:00:42 AM 30.1479 -95.2208 100° East 297 342 6,400 -811 Descending FlightAware ADS-B
Wed 12:01:03 AM 30.1430 -95.1892 100° East 298 343 6,200 -667 Descending FlightAware ADS-B
Wed 12:01:18 AM 30.1393 -95.1656 100° East 296 341 6,000 -600 Descending FlightAware ADS-B
Wed 12:01:33 AM 30.1356 -95.1417 100° East 294 338 5,900 -643 Descending FlightAware ADS-B
Wed 12:01:46 AM 30.1325 -95.1219 100° East 292 336 5,700 -643 Descending FlightAware ADS-B
Wed 12:02:01 AM 30.1289 -95.0991 100° East 289 333 5,600 -600 Descending FlightAware ADS-B
Wed 12:02:16 AM 30.1253 -95.0757 100° East 282 325 5,400 -774 Descending FlightAware ADS-B
Wed 12:02:32 AM 30.1219 -95.0537 100° East 272 313 5,200 -968 Descending FlightAware ADS-B
Wed 12:02:47 AM 30.1187 -95.0324 100° East 262 302 4,900 -1,000 Descending FlightAware ADS-B
Wed 12:03:02 AM 30.1157 -95.0117 100° East 252 290 4,700 -774 Descending FlightAware ADS-B
Wed 12:03:18 AM 30.1128 -94.9921 100° East 243 280 4,500 -968 Descending FlightAware ADS-B
Wed 12:03:33 AM 30.1101 -94.9720 99° East 242 278 4,200 -1,000 Descending FlightAware ADS-B
Wed 12:03:36 AM 30.1095 -94.9681 100° East 240 276 4,200 -857 Level FlightAware ADS-B
Wed 12:03:40 AM 30.1086 -94.9637 103° East 240 276 4,100 -1,714 Descending FlightAware ADS-B
Wed 12:03:43 AM 30.1074 -94.9596 109° East 235 270 4,000 -750 Descending FlightAware ADS-B
Wed 12:03:48 AM 30.1052 -94.9546 117° Southeast 231 266 4,000  Level FlightAware ADS-B
Wed 12:03:51 AM 30.1032 -94.9514 126° Southeast 228 262 4,000  Level FlightAware ADS-B
Wed 12:03:55 AM 30.1007 -94.9482 132° Southeast 224 258 4,000  Level FlightAware ADS-B
Wed 12:04:03 AM 30.0937 -94.9427 146° Southeast 216 249 4,000 -500 Level FlightAware ADS-B
Wed 12:04:07 AM 30.0901 -94.9412 160° South 214 246 3,900  Descending FlightAware ADS-B
Wed 12:04:11 AM 30.0865 -94.9403 168° South 212 244 4,000 857 Climbing FlightAware ADS-B
Wed 12:04:14 AM 30.0834 -94.9399 174° South 211 243 4,000  Level FlightAware ADS-B
Wed 12:04:18 AM 30.0793 -94.9397 178° South 211 243 4,000  Level FlightAware ADS-B
Wed 12:04:26 AM 30.0719 -94.9397 180° South 210 242 4,000  Level FlightAware ADS-B
Wed 12:04:35 AM 30.0625 -94.9400 182° South 210 242 4,000  Level FlightAware ADS-B
Wed 12:04:39 AM 30.0594 -94.9403 185° South 209 241 4,000  Level FlightAware ADS-B
Wed 12:04:42 AM 30.0560 -94.9411 192° South 208 239 4,000  Level FlightAware ADS-B
Wed 12:04:45 AM 30.0532 -94.9421 197° South 207 238 4,000  Level FlightAware ADS-B
Wed 12:04:49 AM 30.0497 -94.9440 205° Southwest 207 238 4,000  Level FlightAware ADS-B
Wed 12:04:52 AM 30.0472 -94.9455 207° Southwest 207 238 4,000  Level FlightAware ADS-B
Wed 12:04:57 AM 30.0432 -94.9481 209° Southwest 207 238 4,000  Level FlightAware ADS-B
Wed 12:05:04 AM 30.0373 -94.9517 208° Southwest 206 237 4,000  Level FlightAware ADS-B
Wed 12:05:08 AM 30.0336 -94.9542 210° Southwest 207 238 4,000  Level FlightAware ADS-B
Wed 12:05:13 AM 30.0301 -94.9571 216° Southwest 207 238 4,000  Level FlightAware ADS-B
Wed 12:05:18 AM 30.0261 -94.9610 220° Southwest 206 237 4,000  Level FlightAware ADS-B
Wed 12:05:32 AM 30.0162 -94.9708 221° Southwest 207 238 4,000  Level FlightAware ADS-B
Wed 12:05:46 AM 30.0060 -94.9815 222° Southwest 207 238 4,000  Level FlightAware ADS-B
Wed 12:05:53 AM 30.0013 -94.9867 224° Southwest 207 238 4,000  Level FlightAware ADS-B
Wed 12:05:57 AM 29.9989 -94.9899 229° Southwest 207 238 4,000  Level FlightAware ADS-B
Wed 12:06:00 AM 29.9972 -94.9929 237° Southwest 209 241 4,000  Level FlightAware ADS-B
Wed 12:06:04 AM 29.9957 -94.9970 247° West 211 243 4,000  Level FlightAware ADS-B
Wed 12:06:07 AM 29.9947 -95.0004 251° West 212 244 4,000  Level FlightAware ADS-B
Wed 12:06:11 AM 29.9940 -95.0047 259° West 214 246 4,000  Level FlightAware ADS-B
Wed 12:06:14 AM 29.9935 -95.0085 261° West 214 246 4,000  Level FlightAware ADS-B
Wed 12:06:20 AM 29.9930 -95.0147 265° West 216 249 4,000  Level FlightAware ADS-B
Wed 12:06:28 AM 29.9927 -95.0244 268° West 216 249 4,000  Level FlightAware ADS-B
Wed 12:06:38 AM 29.9927 -95.0359 270° West 216 249 4,000  Level FlightAware ADS-B
Wed 12:06:53 AM 29.9930 -95.0532 271° West 217 250 4,000  Level FlightAware ADS-B
Wed 12:07:07 AM 29.9933 -95.0693 271° West 215 247 4,000 -200 Level FlightAware ADS-B
Wed 12:07:23 AM 29.9933 -95.0870 270° West 216 249 3,900 -462 Descending FlightAware ADS-B
Wed 12:07:33 AM 29.9934 -95.0984 271° West 217 250 3,800 -900 Descending FlightAware ADS-B
Wed 12:07:43 AM 29.9934 -95.1106 270° West 217 250 3,600 -1,364 Descending FlightAware ADS-B
Wed 12:07:55 AM 29.9934 -95.1240 270° West 217 250 3,300 -1,333 Descending FlightAware ADS-B
Wed 12:08:10 AM 29.9934 -95.1412 270° West 211 243 3,000 -968 Descending FlightAware ADS-B
Wed 12:08:26 AM 29.9935 -95.1591 270° West 197 227 2,800 -968 Descending FlightAware ADS-B
Wed 12:08:41 AM 29.9935 -95.1745 270° West 187 215 2,500 -938 Descending FlightAware ADS-B
Wed 12:08:58 AM 29.9935 -95.1905 270° West 174 200 2,300 -774 Descending FlightAware ADS-B
Wed 12:09:12 AM 29.9935 -95.2022 270° West 156 180 2,100 -800 Descending FlightAware ADS-B
Wed 12:09:28 AM 29.9935 -95.2149 270° West 146 168 1,900 -720 Descending FlightAware ADS-B
Wed 12:09:37 AM 29.9935 -95.2218 270° West 139 160 1,800 -750 Descending FlightAware ADS-B
Wed 12:09:52 AM 29.9935 -95.2327 270° West 132 152 1,600 -643 Descending FlightAware ADS-B
Wed 12:10:05 AM 29.9935 -95.2418 270° West 134 154 1,500 -643 Descending FlightAware ADS-B
Wed 12:10:20 AM 29.9935 -95.2528 270° West 133 153 1,300 -889 Descending FlightAware ADS-B
Wed 12:10:32 AM 29.9934 -95.2614 269° West 133 153 1,100 -621 Descending FlightAware ADS-B
Wed 12:10:49 AM 29.9935 -95.2728 271° West 135 155 1,000 -500 Descending FlightAware ADS-B
Wed 12:10:56 AM 29.9935 -95.2785 270° West 135 155 900 -900 Descending FlightAware ADS-B
Wed 12:11:09 AM 29.9935 -95.2876 270° West 135 155 700 -857 Descending FlightAware ADS-B
Wed 12:11:24 AM 29.9935 -95.2984 270° West 135 155 500 -750 Descending FlightAware ADS-B
Wed 12:11:41 AM 29.9935 -95.3112 270° West 139 160 300 -750 Descending FlightAware ADS-B
Wed 12:11:48 AM 29.9935 -95.3162 270° West 139 160 200 -571 Descending FlightAware ADS-B
Wed 12:12:02 AM 29.9934 -95.3263 269° West 139 160 100 -429 Descending FlightAware ADS-B

Login

Don't have an account? Register now (free) for customized features, flight alerts, and more!